Time;durP1;ratioP1;P1;durP2;ratioP2;P2;SDS_P1;SDS_P2;PMS_P1;PMS_P2;Temp;Humidity;BMP_temperature;BMP_pressure;BME280_temperature;BME280_humidity;BME280_pressure;Samples;Min_cycle;Max_cycle;Signal;HPM_P1;HPM_P2
2021/05/15 00:01:37;;;;;;;2.58;2.38;;;;;;;15.56;63.08;98620.97;5113239;28;20026;-72
2021/05/15 00:04:03;;;;;;;6.32;2.55;;;;;;;15.52;63.42;98618.13;5113283;28;20019;-72
2021/05/15 00:06:29;;;;;;;3.35;1.70;;;;;;;15.54;63.33;98625.91;5113478;28;20024;-72
2021/05/15 00:08:55;;;;;;;3.83;1.95;;;;;;;15.51;63.39;98619.25;5112102;28;20382;-72
2021/05/15 00:11:21;;;;;;;6.40;2.65;;;;;;;15.45;63.47;98611.63;5112401;28;20023;-75
2021/05/15 00:13:46;;;;;;;5.22;2.65;;;;;;;15.36;63.91;98609.72;5113450;28;20031;-74
2021/05/15 00:16:13;;;;;;;7.07;2.40;;;;;;;15.34;63.71;98611.16;5112811;28;20493;-74
2021/05/15 00:18:39;;;;;;;4.85;2.92;;;;;;;15.28;63.97;98610.56;5113245;28;20428;-74
2021/05/15 00:21:06;;;;;;;4.53;2.13;;;;;;;15.28;63.68;98604.34;5113170;28;20078;-74
2021/05/15 00:23:32;;;;;;;3.30;2.17;;;;;;;15.26;63.84;98606.56;5112794;28;20460;-74
2021/05/15 00:25:59;;;;;;;2.78;2.33;;;;;;;15.23;63.94;98604.53;5113083;28;20044;-74
2021/05/15 00:28:25;;;;;;;3.00;2.17;;;;;;;15.20;64.18;98601.34;5113177;28;20043;-74
2021/05/15 00:30:50;;;;;;;3.67;2.55;;;;;;;15.21;64.05;98602.94;5113058;28;20463;-78
2021/05/15 00:33:16;;;;;;;2.58;2.17;;;;;;;15.20;64.14;98595.97;5113307;28;20466;-75
2021/05/15 00:35:41;;;;;;;4.93;2.58;;;;;;;15.16;64.39;98595.03;5110991;28;20027;-75
2021/05/15 00:38:07;;;;;;;2.85;2.28;;;;;;;15.15;64.12;98598.03;5112107;28;20024;-74
2021/05/15 00:40:32;;;;;;;3.22;2.58;;;;;;;15.12;64.30;98607.53;5112546;28;20084;-73
2021/05/15 00:42:57;;;;;;;7.57;2.63;;;;;;;15.12;64.58;98606.75;5112744;28;20019;-74
2021/05/15 00:45:23;;;;;;;8.00;2.40;;;;;;;15.12;64.57;98604.03;5112851;28;20035;-74
2021/05/15 00:47:48;;;;;;;4.35;2.80;;;;;;;15.10;64.68;98606.25;5113511;28;20024;-75
2021/05/15 00:50:14;;;;;;;2.53;1.90;;;;;;;15.13;64.52;98614.50;5111352;28;20023;-73
2021/05/15 00:52:39;;;;;;;2.60;2.30;;;;;;;15.12;64.60;98612.13;5112369;28;20023;-76
2021/05/15 00:55:11;;;;;;;7.05;2.20;;;;;;;15.09;64.53;98608.16;5112600;28;20567;-76
2021/05/15 00:57:39;;;;;;;3.80;1.95;;;;;;;15.15;64.36;98611.50;5112932;27;20054;-77
2021/05/15 01:00:10;;;;;;;7.20;2.40;;;;;;;15.15;64.69;98609.59;5111535;28;20027;-75
2021/05/15 01:02:36;;;;;;;9.55;2.35;;;;;;;15.13;64.81;98606.41;5112524;28;20304;-75
2021/05/15 01:05:02;;;;;;;6.85;2.05;;;;;;;15.17;64.95;98609.25;5112404;28;20102;-73
2021/05/15 01:07:28;;;;;;;5.57;2.78;;;;;;;15.13;64.71;98598.34;5112127;28;20489;-75
2021/05/15 01:09:53;;;;;;;4.93;2.83;;;;;;;15.13;64.65;98598.34;5112216;28;20396;-74
2021/05/15 01:12:18;;;;;;;4.63;2.28;;;;;;;15.15;64.32;98601.50;5112715;28;20022;-74
2021/05/15 01:14:44;;;;;;;6.13;2.35;;;;;;;15.11;64.17;98597.06;5112576;28;20766;-75
2021/05/15 01:17:10;;;;;;;4.72;2.33;;;;;;;15.11;64.26;98597.88;5112645;28;20015;-75
2021/05/15 01:19:37;;;;;;;5.32;2.83;;;;;;;15.08;64.05;98600.41;5112290;27;20028;-75
2021/05/15 01:22:09;;;;;;;6.38;2.42;;;;;;;15.08;64.11;98595.03;5112080;28;20030;-76
2021/05/15 01:24:35;;;;;;;6.05;2.40;;;;;;;15.06;64.52;98589.94;5111330;28;20034;-74
2021/05/15 01:27:04;;;;;;;3.35;2.05;;;;;;;15.01;64.60;98584.72;5112466;28;20478;-74
2021/05/15 01:29:29;;;;;;;4.35;2.80;;;;;;;15.00;64.59;98585.81;5112217;28;20045;-73
2021/05/15 01:31:55;;;;;;;4.60;2.30;;;;;;;14.97;64.84;98581.84;5112111;28;20019;-73
2021/05/15 01:34:20;;;;;;;3.92;2.45;;;;;;;14.95;64.56;98580.59;5110195;28;20111;-74
2021/05/15 01:36:46;;;;;;;3.47;2.65;;;;;;;14.97;64.54;98586.47;5111759;28;20391;-74
2021/05/15 01:39:14;;;;;;;6.45;3.83;;;;;;;14.95;64.57;98596.75;5111599;28;20478;-75
2021/05/15 01:41:39;;;;;;;;;;;;;;;14.87;64.47;98584.88;5112021;28;20080;-74
2021/05/15 01:44:05;;;;;;;13.07;2.25;;;;;;;14.82;64.48;98585.03;5110585;28;20018;-74
2021/05/15 01:46:31;;;;;;;3.42;2.42;;;;;;;14.73;64.95;98582.31;5110659;28;20055;-75
2021/05/15 01:48:56;;;;;;;7.68;2.88;;;;;;;14.70;65.06;98585.66;5112073;28;20490;-75
2021/05/15 01:51:23;;;;;;;6.50;3.75;;;;;;;14.65;65.25;98575.00;5111754;28;20355;-74
2021/05/15 01:53:51;;;;;;;3.58;2.65;;;;;;;14.58;65.91;98568.16;5110229;28;20390;-75
2021/05/15 01:56:22;;;;;;;3.50;2.55;;;;;;;14.52;66.02;98564.03;5111607;28;20028;-75
2021/05/15 01:58:49;;;;;;;4.03;2.50;;;;;;;14.50;66.45;98568.97;5111475;28;20114;-75
2021/05/15 02:01:15;;;;;;;3.08;2.70;;;;;;;14.49;66.61;98571.94;5110270;28;20035;-75
2021/05/15 02:03:43;;;;;;;3.55;2.20;;;;;;;14.47;66.47;98568.78;5109802;28;20027;-73
2021/05/15 02:06:09;;;;;;;3.88;2.83;;;;;;;14.48;66.38;98575.75;5111581;28;20098;-75
2021/05/15 02:08:35;;;;;;;4.05;2.95;;;;;;;14.49;66.18;98575.44;5109431;28;20028;-75
2021/05/15 02:11:01;;;;;;;2.45;2.03;;;;;;;14.46;66.67;98570.69;5111158;28;20047;-76
2021/05/15 02:13:28;;;;;;;3.47;2.42;;;;;;;14.50;66.55;98568.97;5110029;28;20039;-77
2021/05/15 02:15:59;;;;;;;4.82;2.45;;;;;;;14.49;66.16;98566.56;5110041;28;20027;-76
2021/05/15 02:18:25;;;;;;;3.63;2.42;;;;;;;14.51;66.21;98567.06;5111149;28;20031;-75
2021/05/15 02:20:51;;;;;;;2.97;2.50;;;;;;;14.52;66.21;98574.03;5110544;28;20015;-76
2021/05/15 02:23:18;;;;;;;3.10;2.22;;;;;;;14.51;66.17;98573.25;5111318;28;20028;-75
2021/05/15 02:25:47;;;;;;;3.30;2.40;;;;;;;14.51;65.88;98572.44;5110549;28;20035;-75
2021/05/15 02:28:14;;;;;;;9.10;2.70;;;;;;;14.49;65.69;98570.06;5111315;28;20382;-75
2021/05/15 02:30:40;;;;;;;4.50;2.38;;;;;;;14.47;65.64;98560.72;5111286;28;20417;-76
2021/05/15 02:33:05;;;;;;;2.38;1.92;;;;;;;14.49;65.53;98569.25;5111087;28;20027;-75
2021/05/15 02:35:31;;;;;;;3.72;2.25;;;;;;;14.47;65.29;98569.56;5109807;28;20500;-76
2021/05/15 02:37:57;;;;;;;2.30;2.00;;;;;;;14.43;65.52;98571.31;5111435;28;20020;-76
2021/05/15 02:40:24;;;;;;;2.20;1.80;;;;;;;14.38;65.31;98568.78;5111181;28;20024;-75
2021/05/15 02:42:51;;;;;;;5.40;2.55;;;;;;;14.39;65.25;98575.72;5110819;28;20535;-76
2021/05/15 02:45:19;;;;;;;2.88;1.92;;;;;;;14.33;65.53;98574.28;5111005;28;20028;-76
2021/05/15 02:47:45;;;;;;;2.58;2.15;;;;;;;14.31;65.46;98584.59;5111276;28;20102;-75
2021/05/15 02:50:13;;;;;;;3.17;2.20;;;;;;;14.29;65.79;98589.47;5109900;28;20393;-75
2021/05/15 02:52:39;;;;;;;4.80;3.00;;;;;;;14.23;65.69;98581.56;5110920;28;20049;-75
2021/05/15 02:55:07;;;;;;;2.28;2.08;;;;;;;14.23;65.84;98578.06;5110809;28;20027;-76
2021/05/15 02:57:32;;;;;;;6.40;2.33;;;;;;;14.24;65.74;98583.13;5111154;28;20019;-75
2021/05/15 02:59:58;;;;;;;4.10;2.28;;;;;;;14.23;65.78;98584.25;5110642;28;20043;-75
2021/05/15 03:02:23;;;;;;;1.70;1.60;;;;;;;14.22;65.57;98588.03;5110768;28;20027;-74
2021/05/15 03:04:49;;;;;;;2.50;2.22;;;;;;;14.21;65.77;98589.13;5108928;28;20107;-77
2021/05/15 03:07:14;;;;;;;3.40;2.30;;;;;;;14.24;65.46;98596.59;5111296;28;20103;-75
2021/05/15 03:09:40;;;;;;;4.00;2.67;;;;;;;14.25;65.58;98590.09;5110427;28;20106;-74
2021/05/15 03:12:05;;;;;;;3.78;2.22;;;;;;;14.31;65.82;98587.28;5110921;28;20031;-74
2021/05/15 03:14:31;;;;;;;3.83;2.97;;;;;;;14.32;65.77;98586.94;5110595;28;20027;-75
2021/05/15 03:16:56;;;;;;;4.35;2.67;;;;;;;14.36;65.74;98597.88;5110889;28;20079;-76
2021/05/15 03:19:22;;;;;;;2.60;2.15;;;;;;;14.33;65.59;98591.22;5109429;28;20115;-73
2021/05/15 03:21:47;;;;;;;2.90;2.22;;;;;;;14.35;65.41;98597.06;5106754;28;20020;-73
2021/05/15 03:24:13;;;;;;;5.10;2.30;;;;;;;14.34;65.52;98594.69;5111710;28;20034;-74
2021/05/15 03:26:39;;;;;;;3.88;1.95;;;;;;;14.32;65.37;98588.84;5113722;27;20039;-73
2021/05/15 03:29:04;;;;;;;3.95;2.38;;;;;;;14.33;65.53;98593.91;5114103;28;20070;-74
2021/05/15 03:31:30;;;;;;;2.90;2.38;;;;;;;14.34;65.58;98594.69;5114416;28;20171;-74
2021/05/15 03:33:55;;;;;;;3.58;2.22;;;;;;;14.38;65.61;98596.47;5114208;28;20023;-74
2021/05/15 03:36:22;;;;;;;3.75;2.17;;;;;;;14.55;65.87;98595.72;5114533;28;20417;-75
2021/05/15 03:38:47;;;;;;;2.60;2.30;;;;;;;14.93;66.18;98604.34;5114049;28;20081;-76
2021/05/15 03:41:13;;;;;;;3.33;2.50;;;;;;;15.43;65.38;98605.75;5113955;28;20023;-76
2021/05/15 03:43:39;;;;;;;5.72;2.08;;;;;;;15.96;63.80;98604.56;5113748;28;20032;-75
2021/05/15 03:46:05;;;;;;;2.80;2.60;;;;;;;16.61;61.86;98612.53;5113945;28;20451;-75
2021/05/15 03:48:30;;;;;;;2.78;2.13;;;;;;;17.24;59.31;98601.00;5114091;28;20098;-76
2021/05/15 03:50:56;;;;;;;8.90;2.28;;;;;;;17.76;57.23;98605.13;5112915;28;20066;-76
2021/05/15 03:53:22;;;;;;;3.53;2.20;;;;;;;18.12;55.76;98608.25;5114163;28;20442;-76
2021/05/15 03:55:48;;;;;;;5.80;1.88;;;;;;;18.30;54.48;98613.47;5113897;28;20031;-76
2021/05/15 03:58:15;;;;;;;4.75;2.15;;;;;;;18.36;53.84;98610.16;5114029;28;20028;-76
2021/05/15 04:00:40;;;;;;;4.45;1.73;;;;;;;18.31;53.65;98613.13;5112026;28;20519;-75
2021/05/15 04:03:06;;;;;;;1.77;1.33;;;;;;;18.27;53.86;98612.19;5113556;28;20102;-76
2021/05/15 04:05:31;;;;;;;3.28;2.15;;;;;;;18.19;54.05;98615.81;5112631;28;20023;-76
2021/05/15 04:07:57;;;;;;;4.63;2.50;;;;;;;18.13;53.52;98609.81;5113295;28;20016;-75
2021/05/15 04:10:22;;;;;;;2.17;1.70;;;;;;;18.18;53.83;98612.31;5113362;28;20091;-75
2021/05/15 04:12:52;;;;;;;3.33;1.70;;;;;;;18.37;53.04;98605.53;5113057;28;20120;-75
2021/05/15 04:15:34;;;;;;;4.32;1.90;;;;;;;18.51;52.61;98619.53;5113145;28;20026;-75
2021/05/15 04:18:11;;;;;;;2.72;2.45;;;;;;;18.62;51.88;98619.84;5093294;28;20497;-75
2021/05/15 04:20:38;;;;;;;5.60;2.42;;;;;;;18.71;51.31;98614.31;5111588;28;20138;-75
2021/05/15 04:23:04;;;;;;;3.65;2.22;;;;;;;18.70;51.37;98621.66;5113482;28;20038;-75
2021/05/15 04:25:30;;;;;;;7.05;4.43;;;;;;;18.66;51.49;98614.56;5113263;28;20047;-74
2021/05/15 04:27:56;;;;;;;9.88;4.82;;;;;;;18.66;51.62;98619.97;5112931;28;20572;-73
2021/05/15 04:30:23;;;;;;;2.75;2.22;;;;;;;18.89;51.39;98622.97;5113336;27;20084;-74
2021/05/15 04:32:49;;;;;;;1.90;1.65;;;;;;;19.25;51.02;98625.97;5112482;28;20539;-73
2021/05/15 04:35:15;;;;;;;2.80;2.20;;;;;;;19.70;50.27;98626.78;5111369;28;20031;-75
2021/05/15 04:37:40;;;;;;;1.40;1.30;;;;;;;20.25;48.93;98619.69;5112703;28;20027;-75
2021/05/15 04:40:06;;;;;;;4.30;2.50;;;;;;;20.79;47.60;98620.94;5113001;28;20035;-74
2021/05/15 04:42:31;;;;;;;2.53;1.42;;;;;;;21.36;45.74;98609.69;5113131;28;20085;-74
2021/05/15 04:44:57;;;;;;;2.55;1.70;;;;;;;21.99;44.46;98618.63;5112241;28;20046;-75
2021/05/15 04:47:22;;;;;;;1.63;1.30;;;;;;;22.60;43.78;98610.66;5112681;28;20024;-75
2021/05/15 04:49:48;;;;;;;2.65;1.70;;;;;;;23.24;42.27;98606.44;5112344;28;20036;-75
2021/05/15 04:52:13;;;;;;;1.98;1.33;;;;;;;23.82;41.30;98591.44;5113112;28;20072;-75
2021/05/15 04:54:38;;;;;;;8.45;5.22;;;;;;;24.49;39.99;98599.81;5112844;28;20035;-76
2021/05/15 04:57:04;;;;;;;3.92;1.75;;;;;;;25.05;38.50;98597.78;5112845;28;20027;-75
2021/05/15 04:59:32;;;;;;;2.83;2.22;;;;;;;25.51;36.84;98597.19;5112607;28;20080;-75
2021/05/15 05:01:58;;;;;;;3.20;1.65;;;;;;;26.01;35.47;98601.13;5112208;28;20027;-74
2021/05/15 05:04:24;;;;;;;1.60;1.50;;;;;;;26.39;34.52;98598.00;5112060;28;20522;-74
2021/05/15 05:06:49;;;;;;;2.80;1.73;;;;;;;26.72;33.64;98593.25;5112375;28;20102;-76
2021/05/15 05:09:15;;;;;;;2.83;1.70;;;;;;;26.96;33.36;98594.38;5111860;28;20023;-75
2021/05/15 05:11:40;;;;;;;2.40;1.58;;;;;;;27.21;33.11;98594.28;5112109;28;20024;-73
2021/05/15 05:14:06;;;;;;;1.77;1.50;;;;;;;27.45;32.38;98597.31;5111101;28;20032;-74
2021/05/15 05:16:31;;;;;;;3.30;1.88;;;;;;;27.71;32.85;98600.69;5112058;28;20016;-75
2021/05/15 05:18:56;;;;;;;4.40;2.00;;;;;;;27.99;32.27;98591.47;5111571;28;20030;-75
2021/05/15 05:21:22;;;;;;;3.28;1.73;;;;;;;28.15;31.38;98599.22;5112190;28;20027;-76
2021/05/15 05:23:47;;;;;;;2.42;1.42;;;;;;;28.38;31.16;98595.06;5112205;28;20028;-76
2021/05/15 05:26:13;;;;;;;1.65;1.55;;;;;;;28.57;30.72;98599.97;5112221;28;20031;-76
2021/05/15 05:28:41;;;;;;;2.58;1.48;;;;;;;28.83;30.81;98597.78;5112056;28;20382;-77
2021/05/15 05:31:07;;;;;;;2.50;1.70;;;;;;;29.07;30.15;98601.41;5111883;28;20035;-78
2021/05/15 05:33:33;;;;;;;2.05;1.70;;;;;;;29.15;30.03;98601.31;5107577;28;20035;-75
2021/05/15 05:35:59;;;;;;;2.35;1.50;;;;;;;29.29;29.82;98605.88;5111454;27;20061;-75
2021/05/15 05:38:24;;;;;;;2.33;1.50;;;;;;;29.48;29.78;98602.47;5111757;28;20031;-75
2021/05/15 05:40:50;;;;;;;1.95;1.33;;;;;;;29.70;29.31;98599.41;5111560;28;20430;-75
2021/05/15 05:43:15;;;;;;;2.97;2.20;;;;;;;29.90;29.54;98593.22;5111890;28;20023;-75
2021/05/15 05:45:41;;;;;;;3.40;1.10;;;;;;;30.11;29.02;98595.63;5110991;28;20050;-75
2021/05/15 05:48:06;;;;;;;5.32;1.50;;;;;;;30.23;28.93;98596.25;5111441;28;20027;-75
2021/05/15 05:50:32;;;;;;;8.20;3.85;;;;;;;30.45;28.83;98599.41;5111411;28;20028;-76
2021/05/15 05:52:58;;;;;;;3.72;2.70;;;;;;;30.65;28.46;98599.44;5110958;28;20467;-79
2021/05/15 05:55:23;;;;;;;5.75;2.28;;;;;;;30.73;28.15;98600.09;5107589;28;20041;-78
2021/05/15 05:57:49;;;;;;;6.80;1.35;;;;;;;30.88;28.23;98593.06;5110295;28;20049;-79
2021/05/15 06:00:15;;;;;;;5.70;2.80;;;;;;;31.01;28.19;98597.97;5110161;28;20023;-79
2021/05/15 06:02:40;;;;;;;2.10;1.40;;;;;;;31.06;27.02;98589.94;5091490;28;20050;-80
2021/05/15 06:05:07;;;;;;;4.90;2.47;;;;;;;31.07;27.42;98585.97;5090113;28;20119;-79
2021/05/15 06:07:32;;;;;;;1.30;1.00;;;;;;;31.10;27.10;98601.75;5098112;28;20077;-80
2021/05/15 06:09:58;;;;;;;3.35;1.92;;;;;;;31.09;27.24;98602.16;5104994;28;20027;-83
2021/05/15 06:12:23;;;;;;;4.57;1.45;;;;;;;31.11;26.67;98596.97;5097671;28;20394;-77
2021/05/15 06:14:49;;;;;;;2.00;1.60;;;;;;;31.02;26.87;98592.00;5108449;28;20114;-79
2021/05/15 06:17:14;;;;;;;2.22;1.92;;;;;;;30.77;26.51;98587.00;5094168;28;20024;-77
2021/05/15 06:19:40;;;;;;;2.08;0.80;;;;;;;30.55;26.93;98583.88;5093205;28;20074;-76
2021/05/15 06:22:06;;;;;;;4.78;1.20;;;;;;;30.40;27.75;98577.81;5110144;28;20594;-76
2021/05/15 06:24:31;;;;;;;4.85;1.40;;;;;;;30.16;27.57;98570.34;5108219;28;20062;-81
2021/05/15 06:26:57;;;;;;;1.35;1.08;;;;;;;30.00;27.01;98576.53;5100710;28;20028;-78
2021/05/15 06:29:22;;;;;;;1.40;0.90;;;;;;;29.77;27.45;98570.97;5089967;28;20020;-78
2021/05/15 06:31:48;;;;;;;1.80;1.00;;;;;;;29.47;27.73;98567.09;5105152;28;20024;-77
2021/05/15 06:34:13;;;;;;;0.95;0.82;;;;;;;29.07;27.93;98562.09;5089905;28;20020;-75
2021/05/15 06:36:39;;;;;;;2.17;0.90;;;;;;;28.73;29.15;98547.19;5091000;28;20020;-75
2021/05/15 06:39:04;;;;;;;1.88;0.88;;;;;;;28.33;28.89;98552.31;5091096;28;20028;-75
2021/05/15 06:41:30;;;;;;;1.88;0.93;;;;;;;27.99;30.12;98558.47;5094924;28;20024;-75
2021/05/15 06:43:55;;;;;;;1.15;0.80;;;;;;;27.77;30.29;98544.91;5091585;28;20483;-73
2021/05/15 06:46:21;;;;;;;2.20;0.98;;;;;;;27.60;30.56;98554.84;5098822;28;20032;-77
2021/05/15 06:48:46;;;;;;;3.53;1.17;;;;;;;27.50;30.94;98552.16;5110717;28;20020;-77
2021/05/15 06:51:11;;;;;;;3.30;1.27;;;;;;;27.31;31.28;98537.75;5110975;28;20069;-75
2021/05/15 06:53:37;;;;;;;1.67;0.98;;;;;;;27.17;31.69;98547.63;5111141;28;20093;-75
2021/05/15 06:56:03;;;;;;;1.90;1.30;;;;;;;26.92;32.57;98547.75;5107945;28;20478;-78
2021/05/15 06:58:28;;;;;;;3.08;1.27;;;;;;;26.76;32.70;98547.44;5110145;28;20024;-78
2021/05/15 07:00:54;;;;;;;2.28;1.27;;;;;;;26.52;33.44;98538.84;5113460;28;20023;-78
2021/05/15 07:03:19;;;;;;;0.88;0.80;;;;;;;26.21;33.23;98541.28;5114919;28;20470;-77
2021/05/15 07:05:44;;;;;;;3.60;1.38;;;;;;;25.80;34.02;98542.44;5113504;28;20068;-77
2021/05/15 07:08:10;;;;;;;2.10;1.00;;;;;;;25.46;34.61;98537.31;5114836;28;20023;-76
2021/05/15 07:10:36;;;;;;;2.67;1.00;;;;;;;25.12;35.23;98534.09;5113830;28;20027;-77
2021/05/15 07:13:02;;;;;;;2.35;0.90;;;;;;;24.86;35.53;98536.72;5113481;28;20031;-78
2021/05/15 07:15:27;;;;;;;2.00;1.00;;;;;;;24.67;35.54;98524.16;5113639;28;20023;-78
2021/05/15 07:17:53;;;;;;;3.45;1.63;;;;;;;24.53;36.62;98516.63;5113484;28;20476;-78
2021/05/15 07:20:18;;;;;;;3.30;1.17;;;;;;;24.42;37.19;98513.84;5113574;28;20145;-77
2021/05/15 07:22:45;;;;;;;2.17;1.02;;;;;;;24.31;37.45;98513.00;5113664;28;20023;-77
2021/05/15 07:25:11;;;;;;;3.95;1.60;;;;;;;24.27;38.06;98514.94;5113189;28;20062;-77
2021/05/15 07:27:37;;;;;;;2.17;0.90;;;;;;;24.25;39.28;98511.81;5113500;28;20062;-78
2021/05/15 07:30:05;;;;;;;1.50;1.20;;;;;;;24.21;37.83;98521.94;5113189;28;20039;-78
2021/05/15 07:32:31;;;;;;;2.35;1.00;;;;;;;24.04;37.91;98521.41;5113328;28;20081;-78
2021/05/15 07:34:56;;;;;;;0.80;0.80;;;;;;;23.88;38.50;98526.34;5112996;28;20043;-78
2021/05/15 07:37:22;;;;;;;7.07;1.50;;;;;;;23.71;39.44;98520.38;5114320;28;20490;-78
2021/05/15 07:39:48;;;;;;;2.28;1.10;;;;;;;23.66;39.40;98523.44;5112812;28;20429;-78
2021/05/15 07:42:14;;;;;;;2.75;1.00;;;;;;;23.63;39.64;98521.44;5113203;28;20448;-78
2021/05/15 07:44:39;;;;;;;2.72;1.08;;;;;;;23.54;40.63;98527.22;5113223;28;20026;-78
2021/05/15 07:47:05;;;;;;;2.17;1.15;;;;;;;23.45;41.36;98526.78;5112927;28;20431;-78
2021/05/15 07:49:31;;;;;;;3.75;1.15;;;;;;;23.34;41.32;98523.94;5113212;28;20012;-78
2021/05/15 07:51:56;;;;;;;1.88;1.30;;;;;;;23.28;41.59;98528.94;5112822;28;20454;-79
2021/05/15 07:54:23;;;;;;;1.52;0.98;;;;;;;23.30;41.44;98523.91;5112966;28;20484;-78
2021/05/15 07:56:49;;;;;;;0.95;0.80;;;;;;;23.33;39.29;98528.59;5112818;28;20024;-79
2021/05/15 07:59:16;;;;;;;1.63;1.30;;;;;;;23.37;40.06;98517.72;5114457;28;20026;-78
2021/05/15 08:01:41;;;;;;;2.38;1.10;;;;;;;23.40;39.62;98527.88;5112783;28;20382;-79
2021/05/15 08:04:07;;;;;;;2.97;1.00;;;;;;;23.42;38.64;98530.22;5112645;28;20024;-78
2021/05/15 08:06:33;;;;;;;2.25;0.90;;;;;;;23.54;39.22;98521.00;5112562;28;20467;-79
2021/05/15 08:08:58;;;;;;;1.88;1.02;;;;;;;23.56;37.63;98524.13;5111958;28;20023;-79
2021/05/15 08:11:24;;;;;;;1.85;0.80;;;;;;;23.60;37.44;98523.00;5114327;28;20481;-79
2021/05/15 08:13:49;;;;;;;1.30;0.60;;;;;;;23.57;37.36;98512.84;5112443;28;20019;-78
2021/05/15 08:16:16;;;;;;;2.60;1.00;;;;;;;23.55;38.05;98504.25;5112648;28;20016;-78
2021/05/15 08:18:42;;;;;;;2.15;0.73;;;;;;;23.56;37.13;98507.75;5113643;28;20444;-78
2021/05/15 08:21:08;;;;;;;3.40;1.20;;;;;;;23.59;37.57;98498.81;5112285;28;20027;-78
2021/05/15 08:23:35;;;;;;;2.22;1.00;;;;;;;23.65;37.74;98500.03;5112596;28;20023;-78
2021/05/15 08:26:11;;;;;;;1.77;0.77;;;;;;;23.79;37.13;98510.28;5111595;28;20102;-78
2021/05/15 08:28:40;;;;;;;1.33;1.02;;;;;;;23.91;37.07;98526.38;5112556;28;20023;-78
2021/05/15 08:31:10;;;;;;;1.48;0.70;;;;;;;23.98;35.87;98509.28;5113573;28;20497;-78
2021/05/15 08:33:36;;;;;;;2.15;1.00;;;;;;;23.96;35.47;98511.59;5112235;28;20031;-78
2021/05/15 08:36:02;;;;;;;2.15;1.23;;;;;;;23.89;36.18;98506.06;5112063;28;20281;-78
2021/05/15 08:38:28;;;;;;;3.60;0.85;;;;;;;23.81;36.26;98506.03;5112180;28;20462;-79
2021/05/15 08:40:54;;;;;;;8.25;1.80;;;;;;;23.75;36.73;98495.81;5111723;28;20027;-78
2021/05/15 08:43:20;;;;;;;2.40;0.70;;;;;;;23.65;37.15;98497.31;5113381;28;20030;-77
2021/05/15 08:45:48;;;;;;;4.43;1.15;;;;;;;23.59;37.58;98488.66;5113590;28;20215;-78
2021/05/15 08:48:15;;;;;;;2.47;1.15;;;;;;;23.61;37.85;98501.97;5113280;28;20458;-78
2021/05/15 08:50:41;;;;;;;1.13;1.00;;;;;;;23.58;38.09;98484.41;5111992;28;20467;-78
2021/05/15 08:53:06;;;;;;;2.80;1.02;;;;;;;23.59;38.09;98488.66;5111762;28;20032;-78
2021/05/15 08:55:33;;;;;;;1.00;1.00;;;;;;;23.65;38.83;98487.16;5112007;28;20019;-78
2021/05/15 08:58:01;;;;;;;5.68;1.98;;;;;;;23.73;39.28;98482.56;5111467;28;20478;-78
2021/05/15 09:00:33;;;;;;;1.13;1.02;;;;;;;23.79;38.61;98489.22;5111692;28;20034;-78
2021/05/15 09:03:03;;;;;;;1.17;0.85;;;;;;;23.81;38.38;98478.72;5111592;28;20027;-78
2021/05/15 09:05:32;;;;;;;1.50;1.17;;;;;;;23.81;38.47;98481.47;5112696;28;20031;-77
2021/05/15 09:08:04;;;;;;;2.30;0.90;;;;;;;23.73;38.64;98468.91;5112750;27;20012;-77
2021/05/15 09:10:34;;;;;;;2.17;1.10;;;;;;;23.77;39.18;98468.94;5111495;28;20050;-77
2021/05/15 09:13:18;;;;;;;2.88;0.90;;;;;;;23.74;38.99;98467.75;5111184;28;20112;-77
2021/05/15 09:16:04;;;;;;;1.50;1.05;;;;;;;23.81;39.26;98470.53;5112631;28;20051;-77
2021/05/15 09:18:39;;;;;;;2.83;1.08;;;;;;;23.83;38.79;98462.72;5112948;28;20031;-76
2021/05/15 09:21:09;;;;;;;3.25;1.05;;;;;;;23.81;38.80;98458.81;5111721;28;20055;-77
2021/05/15 09:23:39;;;;;;;1.33;1.00;;;;;;;23.82;39.43;98477.53;5112548;27;20024;-77
2021/05/15 09:26:09;;;;;;;2.28;1.02;;;;;;;23.88;38.86;98461.59;5110734;28;20108;-77
2021/05/15 09:28:50;;;;;;;3.00;1.48;;;;;;;23.97;38.46;98459.34;5111243;28;20019;-77
2021/05/15 09:31:19;;;;;;;2.78;1.40;;;;;;;24.09;38.68;98446.53;5110924;28;20474;-77
2021/05/15 09:33:48;;;;;;;2.00;0.95;;;;;;;24.16;39.05;98452.03;5111016;28;20023;-77
2021/05/15 09:36:13;;;;;;;1.33;0.73;;;;;;;24.22;38.79;98439.59;5110390;28;20390;-77
2021/05/15 09:38:39;;;;;;;0.80;0.77;;;;;;;24.32;39.05;98453.69;5111945;28;20022;-77
2021/05/15 09:41:04;;;;;;;1.15;0.82;;;;;;;24.33;38.69;98436.09;5111763;28;20024;-76
2021/05/15 09:43:30;;;;;;;3.97;1.35;;;;;;;24.38;38.32;98433.03;5111949;28;20019;-76
2021/05/15 09:45:55;;;;;;;4.15;1.25;;;;;;;24.45;38.11;98433.06;5110786;28;20027;-76
2021/05/15 09:48:36;;;;;;;2.00;1.10;;;;;;;24.46;39.01;98442.81;5110820;28;20390;-76
2021/05/15 09:51:16;;;;;;;4.68;0.90;;;;;;;24.43;38.64;98436.16;5112412;28;20201;-76
2021/05/15 09:53:42;;;;;;;2.50;1.10;;;;;;;24.40;39.42;98417.81;5112280;28;20379;-77
2021/05/15 09:56:08;;;;;;;6.97;1.13;;;;;;;24.45;37.72;98416.66;5111643;28;20023;-77
2021/05/15 09:58:34;;;;;;;1.30;0.82;;;;;;;24.51;38.32;98409.66;5110668;28;20491;-77
2021/05/15 10:01:00;;;;;;;3.15;1.10;;;;;;;24.60;38.85;98406.56;5111766;28;20019;-77
2021/05/15 10:03:27;;;;;;;1.50;1.00;;;;;;;24.71;38.98;98415.59;5110560;28;20470;-77
2021/05/15 10:06:02;;;;;;;1.60;0.93;;;;;;;24.77;38.79;98399.59;5111763;28;20023;-77
2021/05/15 10:08:29;;;;;;;5.07;1.08;;;;;;;24.84;38.60;98398.81;5110431;28;20039;-77
2021/05/15 10:10:55;;;;;;;2.65;1.27;;;;;;;24.88;38.22;98391.41;5110352;28;20068;-77
2021/05/15 10:13:21;;;;;;;1.58;1.00;;;;;;;24.94;37.12;98396.09;5110495;28;20028;-77
2021/05/15 10:15:47;;;;;;;4.22;1.00;;;;;;;24.98;37.32;98392.59;5110386;28;20019;-77
2021/05/15 10:18:14;;;;;;;1.10;1.00;;;;;;;24.98;37.41;98396.13;5109990;28;20114;-78
2021/05/15 10:20:40;;;;;;;2.92;1.00;;;;;;;24.96;37.85;98403.16;5111590;28;20377;-78
2021/05/15 10:23:17;;;;;;;4.35;1.10;;;;;;;24.93;37.80;98391.03;5110220;28;20023;-75
2021/05/15 10:25:43;;;;;;;2.20;0.70;;;;;;;24.94;37.95;98384.41;5111641;28;20058;-77
2021/05/15 10:28:09;;;;;;;1.95;1.17;;;;;;;24.89;38.11;98382.03;5111079;28;20094;-78
2021/05/15 10:30:35;;;;;;;1.35;0.73;;;;;;;24.91;36.62;98377.75;5110450;28;20114;-78
2021/05/15 10:33:05;;;;;;;2.85;0.90;;;;;;;24.91;35.29;98375.03;5111848;28;20031;-78
2021/05/15 10:35:39;;;;;;;2.17;1.10;;;;;;;24.90;34.64;98378.91;5116093;28;20115;-78
2021/05/15 10:38:10;;;;;;;2.83;1.17;;;;;;;24.93;35.02;98367.19;5115325;28;20457;-78
2021/05/15 10:40:49;;;;;;;1.95;1.13;;;;;;;24.94;36.91;98381.66;5114211;28;20062;-77
2021/05/15 10:43:30;;;;;;;1.90;1.10;;;;;;;24.94;37.06;98390.63;5113875;28;20020;-77
2021/05/15 10:45:56;;;;;;;1.27;0.80;;;;;;;24.91;37.33;98383.22;5114118;28;20285;-77
2021/05/15 10:48:26;;;;;;;1.38;0.73;;;;;;;24.92;37.64;98373.81;5114353;28;20312;-78
2021/05/15 10:51:00;;;;;;;1.55;0.68;;;;;;;24.92;37.87;98364.84;5115668;28;20016;-78
2021/05/15 10:53:28;;;;;;;3.88;1.30;;;;;;;24.98;38.05;98365.25;5114422;28;20571;-78
2021/05/15 10:56:15;;;;;;;3.30;0.95;;;;;;;24.99;37.83;98364.84;5115555;28;20375;-78
2021/05/15 10:58:51;;;;;;;2.13;0.90;;;;;;;25.01;37.27;98373.47;5115355;28;20035;-77
2021/05/15 11:01:23;;;;;;;1.42;0.88;;;;;;;25.04;37.25;98360.97;5113777;28;20118;-78
2021/05/15 11:03:50;;;;;;;3.13;0.80;;;;;;;25.07;37.67;98368.38;5113978;28;20465;-78
2021/05/15 11:06:21;;;;;;;2.40;0.90;;;;;;;25.05;37.55;98366.03;5113689;28;20552;-78
2021/05/15 11:09:01;;;;;;;2.65;1.20;;;;;;;24.99;37.08;98337.50;5114093;28;20028;-78
2021/05/15 11:11:41;;;;;;;2.28;0.90;;;;;;;24.99;37.40;98351.19;5113872;28;20413;-78
2021/05/15 11:14:39;;;;;;;3.88;1.30;;;;;;;24.99;37.41;98347.69;5113566;28;20046;-78
2021/05/15 11:17:18;;;;;;;2.95;1.23;;;;;;;24.98;37.17;98355.09;5115311;27;20479;-78
2021/05/15 11:20:11;;;;;;;2.35;1.10;;;;;;;24.89;37.11;98339.06;5113609;28;20034;-78
2021/05/15 11:22:40;;;;;;;1.30;1.17;;;;;;;24.92;37.09;98338.28;5114978;28;20053;-78
2021/05/15 11:25:14;;;;;;;3.60;0.95;;;;;;;24.94;38.36;98340.63;5113272;28;20501;-78
2021/05/15 11:27:55;;;;;;;2.63;0.80;;;;;;;25.01;34.60;98323.44;5113776;28;20076;-78
2021/05/15 11:30:28;;;;;;;3.13;1.13;;;;;;;25.02;32.35;98325.00;5113154;28;20382;-79
2021/05/15 11:32:57;;;;;;;1.05;0.88;;;;;;;25.07;31.77;98336.34;5113416;28;20550;-78
2021/05/15 11:35:25;;;;;;;4.80;0.90;;;;;;;25.05;30.90;98330.47;5113411;28;20077;-78